sensor_id;sensor_type;location;lat;lon;timestamp;P1;durP1;ratioP1;P2;durP2;ratioP2
57105;SDS011;62662;56.788;23.942;2022-11-20T00:01:22;14.65;;;10.43;;
57105;SDS011;62662;56.788;23.942;2022-11-20T00:03:51;13.93;;;9.55;;
57105;SDS011;62662;56.788;23.942;2022-11-20T00:06:20;15.82;;;10.10;;
57105;SDS011;62662;56.788;23.942;2022-11-20T00:08:47;14.27;;;8.77;;
57105;SDS011;62662;56.788;23.942;2022-11-20T00:11:18;13.55;;;9.10;;
57105;SDS011;62662;56.788;23.942;2022-11-20T00:13:47;14.40;;;9.32;;
57105;SDS011;62662;56.788;23.942;2022-11-20T00:16:16;12.73;;;8.60;;
57105;SDS011;62662;56.788;23.942;2022-11-20T00:18:45;12.73;;;8.63;;
57105;SDS011;62662;56.788;23.942;2022-11-20T00:21:13;13.65;;;9.48;;
57105;SDS011;62662;56.788;23.942;2022-11-20T00:23:41;18.60;;;11.80;;
57105;SDS011;62662;56.788;23.942;2022-11-20T00:26:10;11.93;;;8.75;;
57105;SDS011;62662;56.788;23.942;2022-11-20T00:28:38;13.15;;;8.90;;
57105;SDS011;62662;56.788;23.942;2022-11-20T00:31:07;12.05;;;8.50;;
57105;SDS011;62662;56.788;23.942;2022-11-20T00:33:38;14.38;;;9.15;;
57105;SDS011;62662;56.788;23.942;2022-11-20T00:36:06;14.05;;;8.52;;
57105;SDS011;62662;56.788;23.942;2022-11-20T00:38:35;11.77;;;7.82;;
57105;SDS011;62662;56.788;23.942;2022-11-20T00:41:04;13.77;;;8.55;;
57105;SDS011;62662;56.788;23.942;2022-11-20T00:43:33;10.63;;;8.25;;
57105;SDS011;62662;56.788;23.942;2022-11-20T00:46:02;13.43;;;9.32;;
57105;SDS011;62662;56.788;23.942;2022-11-20T00:48:31;13.63;;;9.38;;
57105;SDS011;62662;56.788;23.942;2022-11-20T00:50:58;17.02;;;8.57;;
57105;SDS011;62662;56.788;23.942;2022-11-20T00:53:26;12.52;;;8.88;;
57105;SDS011;62662;56.788;23.942;2022-11-20T00:55:57;13.18;;;8.70;;
57105;SDS011;62662;56.788;23.942;2022-11-20T00:58:28;12.45;;;9.07;;
57105;SDS011;62662;56.788;23.942;2022-11-20T01:01:07;13.13;;;8.57;;
57105;SDS011;62662;56.788;23.942;2022-11-20T01:03:41;10.27;;;8.20;;
57105;SDS011;62662;56.788;23.942;2022-11-20T01:06:13;13.07;;;9.18;;
57105;SDS011;62662;56.788;23.942;2022-11-20T01:08:45;12.77;;;9.25;;
57105;SDS011;62662;56.788;23.942;2022-11-20T01:11:14;12.23;;;9.25;;
57105;SDS011;62662;56.788;23.942;2022-11-20T01:13:43;12.48;;;8.70;;
57105;SDS011;62662;56.788;23.942;2022-11-20T01:18:46;13.63;;;8.88;;
57105;SDS011;62662;56.788;23.942;2022-11-20T01:21:16;13.57;;;8.88;;
57105;SDS011;62662;56.788;23.942;2022-11-20T01:23:48;13.02;;;8.38;;
57105;SDS011;62662;56.788;23.942;2022-11-20T01:26:16;14.90;;;8.45;;
57105;SDS011;62662;56.788;23.942;2022-11-20T01:28:46;12.70;;;8.27;;
57105;SDS011;62662;56.788;23.942;2022-11-20T01:31:27;13.40;;;9.13;;
57105;SDS011;62662;56.788;23.942;2022-11-20T01:33:57;12.30;;;9.05;;
57105;SDS011;62662;56.788;23.942;2022-11-20T01:36:26;11.77;;;8.27;;
57105;SDS011;62662;56.788;23.942;2022-11-20T01:38:55;10.50;;;7.75;;
57105;SDS011;62662;56.788;23.942;2022-11-20T01:41:23;12.95;;;8.75;;
57105;SDS011;62662;56.788;23.942;2022-11-20T01:44:17;13.05;;;8.65;;
57105;SDS011;62662;56.788;23.942;2022-11-20T01:46:52;12.07;;;8.75;;
57105;SDS011;62662;56.788;23.942;2022-11-20T01:49:31;12.57;;;8.60;;
57105;SDS011;62662;56.788;23.942;2022-11-20T01:52:05;14.35;;;9.32;;
57105;SDS011;62662;56.788;23.942;2022-11-20T01:54:40;13.50;;;10.00;;
57105;SDS011;62662;56.788;23.942;2022-11-20T01:57:12;15.20;;;9.30;;
57105;SDS011;62662;56.788;23.942;2022-11-20T01:59:43;14.43;;;9.02;;
57105;SDS011;62662;56.788;23.942;2022-11-20T02:02:14;16.77;;;9.57;;
57105;SDS011;62662;56.788;23.942;2022-11-20T02:04:41;14.07;;;10.50;;
57105;SDS011;62662;56.788;23.942;2022-11-20T02:07:08;14.38;;;9.20;;
57105;SDS011;62662;56.788;23.942;2022-11-20T02:09:36;14.50;;;10.88;;
57105;SDS011;62662;56.788;23.942;2022-11-20T02:12:03;15.88;;;10.60;;
57105;SDS011;62662;56.788;23.942;2022-11-20T02:14:30;13.73;;;9.38;;
57105;SDS011;62662;56.788;23.942;2022-11-20T02:16:58;14.45;;;9.77;;
57105;SDS011;62662;56.788;23.942;2022-11-20T02:19:28;14.13;;;9.57;;
57105;SDS011;62662;56.788;23.942;2022-11-20T02:24:34;28.67;;;18.05;;
57105;SDS011;62662;56.788;23.942;2022-11-20T02:27:07;19.45;;;13.18;;
57105;SDS011;62662;56.788;23.942;2022-11-20T02:29:38;14.27;;;9.48;;
57105;SDS011;62662;56.788;23.942;2022-11-20T02:32:30;17.27;;;9.77;;
57105;SDS011;62662;56.788;23.942;2022-11-20T02:35:09;15.68;;;10.38;;
57105;SDS011;62662;56.788;23.942;2022-11-20T02:37:58;15.50;;;10.55;;
57105;SDS011;62662;56.788;23.942;2022-11-20T02:40:27;16.13;;;9.98;;
57105;SDS011;62662;56.788;23.942;2022-11-20T02:42:55;14.90;;;10.27;;
57105;SDS011;62662;56.788;23.942;2022-11-20T02:45:23;16.25;;;10.07;;
57105;SDS011;62662;56.788;23.942;2022-11-20T02:47:50;16.45;;;10.55;;
57105;SDS011;62662;56.788;23.942;2022-11-20T02:50:18;18.25;;;10.85;;
57105;SDS011;62662;56.788;23.942;2022-11-20T02:52:45;13.43;;;9.73;;
57105;SDS011;62662;56.788;23.942;2022-11-20T02:55:12;15.85;;;11.13;;
57105;SDS011;62662;56.788;23.942;2022-11-20T02:57:39;22.38;;;11.02;;
57105;SDS011;62662;56.788;23.942;2022-11-20T03:00:06;17.88;;;11.98;;
57105;SDS011;62662;56.788;23.942;2022-11-20T03:02:34;16.52;;;10.95;;
57105;SDS011;62662;56.788;23.942;2022-11-20T03:05:01;13.85;;;10.18;;
57105;SDS011;62662;56.788;23.942;2022-11-20T03:07:28;16.23;;;10.52;;
57105;SDS011;62662;56.788;23.942;2022-11-20T03:09:55;15.05;;;10.57;;
57105;SDS011;62662;56.788;23.942;2022-11-20T03:12:22;16.35;;;10.23;;
57105;SDS011;62662;56.788;23.942;2022-11-20T03:14:49;15.35;;;10.27;;
57105;SDS011;62662;56.788;23.942;2022-11-20T03:17:18;15.27;;;10.88;;
57105;SDS011;62662;56.788;23.942;2022-11-20T03:19:45;14.55;;;10.50;;
57105;SDS011;62662;56.788;23.942;2022-11-20T03:22:12;16.73;;;10.35;;
57105;SDS011;62662;56.788;23.942;2022-11-20T03:24:39;16.33;;;11.15;;
57105;SDS011;62662;56.788;23.942;2022-11-20T03:27:06;15.38;;;10.23;;
57105;SDS011;62662;56.788;23.942;2022-11-20T03:29:34;15.77;;;10.52;;
57105;SDS011;62662;56.788;23.942;2022-11-20T03:32:02;17.38;;;11.25;;
57105;SDS011;62662;56.788;23.942;2022-11-20T03:34:29;17.50;;;11.23;;
57105;SDS011;62662;56.788;23.942;2022-11-20T03:36:56;17.45;;;11.40;;
57105;SDS011;62662;56.788;23.942;2022-11-20T03:39:23;17.05;;;10.98;;
57105;SDS011;62662;56.788;23.942;2022-11-20T03:41:50;18.13;;;11.38;;
57105;SDS011;62662;56.788;23.942;2022-11-20T03:44:20;16.90;;;11.23;;
57105;SDS011;62662;56.788;23.942;2022-11-20T03:46:48;15.40;;;11.27;;
57105;SDS011;62662;56.788;23.942;2022-11-20T03:49:15;20.00;;;11.65;;
57105;SDS011;62662;56.788;23.942;2022-11-20T03:51:42;14.60;;;10.65;;
57105;SDS011;62662;56.788;23.942;2022-11-20T03:54:08;16.63;;;10.48;;
57105;SDS011;62662;56.788;23.942;2022-11-20T03:56:36;15.25;;;11.20;;
57105;SDS011;62662;56.788;23.942;2022-11-20T03:59:05;15.13;;;10.88;;
57105;SDS011;62662;56.788;23.942;2022-11-20T04:01:34;14.90;;;10.60;;
57105;SDS011;62662;56.788;23.942;2022-11-20T04:04:03;15.98;;;11.18;;
57105;SDS011;62662;56.788;23.942;2022-11-20T04:06:32;19.02;;;11.13;;
57105;SDS011;62662;56.788;23.942;2022-11-20T04:09:02;16.42;;;11.10;;
57105;SDS011;62662;56.788;23.942;2022-11-20T04:11:30;20.40;;;11.20;;
57105;SDS011;62662;56.788;23.942;2022-11-20T04:13:59;20.50;;;11.75;;
57105;SDS011;62662;56.788;23.942;2022-11-20T04:16:32;16.88;;;11.50;;
57105;SDS011;62662;56.788;23.942;2022-11-20T04:19:02;19.60;;;11.05;;
57105;SDS011;62662;56.788;23.942;2022-11-20T04:21:31;19.13;;;10.68;;
57105;SDS011;62662;56.788;23.942;2022-11-20T04:23:58;17.90;;;11.20;;
57105;SDS011;62662;56.788;23.942;2022-11-20T04:26:26;15.88;;;11.27;;
57105;SDS011;62662;56.788;23.942;2022-11-20T04:28:54;20.35;;;12.32;;
57105;SDS011;62662;56.788;23.942;2022-11-20T04:31:22;20.70;;;11.57;;
57105;SDS011;62662;56.788;23.942;2022-11-20T04:33:51;20.80;;;12.63;;
57105;SDS011;62662;56.788;23.942;2022-11-20T04:36:23;19.83;;;11.90;;
57105;SDS011;62662;56.788;23.942;2022-11-20T04:38:56;23.00;;;12.50;;
57105;SDS011;62662;56.788;23.942;2022-11-20T04:41:25;25.55;;;15.27;;
57105;SDS011;62662;56.788;23.942;2022-11-20T04:43:55;29.17;;;16.08;;
57105;SDS011;62662;56.788;23.942;2022-11-20T04:46:26;24.70;;;13.95;;
57105;SDS011;62662;56.788;23.942;2022-11-20T04:48:54;24.25;;;14.10;;
57105;SDS011;62662;56.788;23.942;2022-11-20T04:51:21;19.48;;;12.05;;
57105;SDS011;62662;56.788;23.942;2022-11-20T04:53:49;18.92;;;11.65;;
57105;SDS011;62662;56.788;23.942;2022-11-20T04:56:16;17.98;;;11.80;;
57105;SDS011;62662;56.788;23.942;2022-11-20T04:58:43;21.67;;;12.02;;
57105;SDS011;62662;56.788;23.942;2022-11-20T05:01:12;17.10;;;11.38;;
57105;SDS011;62662;56.788;23.942;2022-11-20T05:03:43;15.93;;;11.05;;
57105;SDS011;62662;56.788;23.942;2022-11-20T05:06:12;17.35;;;11.00;;
57105;SDS011;62662;56.788;23.942;2022-11-20T05:08:41;15.05;;;11.25;;
57105;SDS011;62662;56.788;23.942;2022-11-20T05:11:12;16.52;;;11.35;;
57105;SDS011;62662;56.788;23.942;2022-11-20T05:13:41;16.70;;;10.77;;
57105;SDS011;62662;56.788;23.942;2022-11-20T05:16:10;18.50;;;11.13;;
57105;SDS011;62662;56.788;23.942;2022-11-20T05:18:39;20.80;;;12.40;;
57105;SDS011;62662;56.788;23.942;2022-11-20T05:21:07;22.05;;;11.82;;
57105;SDS011;62662;56.788;23.942;2022-11-20T05:23:35;19.00;;;11.90;;
57105;SDS011;62662;56.788;23.942;2022-11-20T05:26:03;23.30;;;13.05;;
57105;SDS011;62662;56.788;23.942;2022-11-20T05:28:32;17.98;;;12.05;;
57105;SDS011;62662;56.788;23.942;2022-11-20T05:31:04;19.60;;;11.73;;
57105;SDS011;62662;56.788;23.942;2022-11-20T05:33:33;20.58;;;11.95;;
57105;SDS011;62662;56.788;23.942;2022-11-20T05:36:04;18.65;;;11.68;;
57105;SDS011;62662;56.788;23.942;2022-11-20T05:38:32;16.98;;;10.95;;
57105;SDS011;62662;56.788;23.942;2022-11-20T05:41:03;18.80;;;11.50;;
57105;SDS011;62662;56.788;23.942;2022-11-20T05:43:32;19.10;;;12.03;;
57105;SDS011;62662;56.788;23.942;2022-11-20T05:46:00;18.88;;;11.85;;
57105;SDS011;62662;56.788;23.942;2022-11-20T05:48:29;19.38;;;11.15;;
57105;SDS011;62662;56.788;23.942;2022-11-20T05:50:58;20.10;;;11.82;;
57105;SDS011;62662;56.788;23.942;2022-11-20T05:53:26;18.63;;;12.73;;
57105;SDS011;62662;56.788;23.942;2022-11-20T05:55:59;20.07;;;11.53;;
57105;SDS011;62662;56.788;23.942;2022-11-20T05:58:28;16.77;;;11.75;;
57105;SDS011;62662;56.788;23.942;2022-11-20T06:01:07;17.75;;;11.30;;
57105;SDS011;62662;56.788;23.942;2022-11-20T06:03:37;18.60;;;12.00;;
57105;SDS011;62662;56.788;23.942;2022-11-20T06:06:06;19.50;;;11.68;;
57105;SDS011;62662;56.788;23.942;2022-11-20T06:08:33;16.33;;;10.80;;
57105;SDS011;62662;56.788;23.942;2022-11-20T06:11:10;19.63;;;10.77;;
57105;SDS011;62662;56.788;23.942;2022-11-20T06:13:39;19.67;;;10.73;;
57105;SDS011;62662;56.788;23.942;2022-11-20T06:16:08;15.90;;;10.77;;
57105;SDS011;62662;56.788;23.942;2022-11-20T06:18:37;18.10;;;11.00;;
57105;SDS011;62662;56.788;23.942;2022-11-20T06:21:17;16.60;;;10.77;;
57105;SDS011;62662;56.788;23.942;2022-11-20T06:23:45;19.23;;;11.70;;
57105;SDS011;62662;56.788;23.942;2022-11-20T06:26:21;18.10;;;11.95;;
57105;SDS011;62662;56.788;23.942;2022-11-20T06:28:50;19.03;;;12.00;;
57105;SDS011;62662;56.788;23.942;2022-11-20T06:31:20;19.50;;;12.10;;
57105;SDS011;62662;56.788;23.942;2022-11-20T06:33:49;17.83;;;11.10;;
57105;SDS011;62662;56.788;23.942;2022-11-20T06:36:18;21.10;;;12.47;;
57105;SDS011;62662;56.788;23.942;2022-11-20T06:38:46;19.45;;;10.68;;
57105;SDS011;62662;56.788;23.942;2022-11-20T06:41:16;19.40;;;12.40;;
57105;SDS011;62662;56.788;23.942;2022-11-20T06:43:44;28.20;;;13.93;;
57105;SDS011;62662;56.788;23.942;2022-11-20T06:46:12;52.78;;;25.20;;
57105;SDS011;62662;56.788;23.942;2022-11-20T06:48:40;27.10;;;17.23;;
57105;SDS011;62662;56.788;23.942;2022-11-20T06:51:08;19.42;;;12.65;;
57105;SDS011;62662;56.788;23.942;2022-11-20T06:53:36;17.38;;;12.07;;
57105;SDS011;62662;56.788;23.942;2022-11-20T06:56:04;21.00;;;13.15;;
57105;SDS011;62662;56.788;23.942;2022-11-20T06:58:32;20.17;;;12.77;;
57105;SDS011;62662;56.788;23.942;2022-11-20T07:01:01;23.98;;;12.98;;
57105;SDS011;62662;56.788;23.942;2022-11-20T07:03:33;20.45;;;12.55;;
57105;SDS011;62662;56.788;23.942;2022-11-20T07:06:02;21.00;;;12.23;;
57105;SDS011;62662;56.788;23.942;2022-11-20T07:08:29;20.75;;;12.77;;
57105;SDS011;62662;56.788;23.942;2022-11-20T07:11:01;22.83;;;13.00;;
57105;SDS011;62662;56.788;23.942;2022-11-20T07:13:30;28.17;;;14.98;;
57105;SDS011;62662;56.788;23.942;2022-11-20T07:16:04;23.15;;;13.50;;
57105;SDS011;62662;56.788;23.942;2022-11-20T07:18:33;22.40;;;13.15;;
57105;SDS011;62662;56.788;23.942;2022-11-20T07:21:05;24.02;;;12.55;;
57105;SDS011;62662;56.788;23.942;2022-11-20T07:23:34;21.88;;;12.35;;
57105;SDS011;62662;56.788;23.942;2022-11-20T07:26:02;25.10;;;13.38;;
57105;SDS011;62662;56.788;23.942;2022-11-20T07:28:33;27.20;;;16.23;;
57105;SDS011;62662;56.788;23.942;2022-11-20T07:31:01;23.75;;;14.32;;
57105;SDS011;62662;56.788;23.942;2022-11-20T07:33:28;36.78;;;17.13;;
57105;SDS011;62662;56.788;23.942;2022-11-20T07:35:58;31.15;;;15.93;;
57105;SDS011;62662;56.788;23.942;2022-11-20T07:38:26;21.50;;;12.65;;
57105;SDS011;62662;56.788;23.942;2022-11-20T07:40:54;23.92;;;12.98;;
57105;SDS011;62662;56.788;23.942;2022-11-20T07:43:22;16.90;;;11.00;;
57105;SDS011;62662;56.788;23.942;2022-11-20T07:45:51;18.05;;;11.27;;
57105;SDS011;62662;56.788;23.942;2022-11-20T07:48:18;17.83;;;10.75;;
57105;SDS011;62662;56.788;23.942;2022-11-20T07:50:46;19.55;;;11.52;;
57105;SDS011;62662;56.788;23.942;2022-11-20T07:53:13;21.45;;;12.48;;
57105;SDS011;62662;56.788;23.942;2022-11-20T07:55:47;21.52;;;12.00;;
57105;SDS011;62662;56.788;23.942;2022-11-20T07:58:14;18.48;;;11.95;;
57105;SDS011;62662;56.788;23.942;2022-11-20T08:00:41;21.40;;;11.77;;
57105;SDS011;62662;56.788;23.942;2022-11-20T08:03:09;20.23;;;11.45;;
57105;SDS011;62662;56.788;23.942;2022-11-20T08:05:35;17.75;;;10.70;;
57105;SDS011;62662;56.788;23.942;2022-11-20T08:08:04;16.13;;;10.63;;
57105;SDS011;62662;56.788;23.942;2022-11-20T08:10:32;16.80;;;10.82;;
57105;SDS011;62662;56.788;23.942;2022-11-20T08:12:59;19.15;;;11.52;;
57105;SDS011;62662;56.788;23.942;2022-11-20T08:15:49;20.23;;;11.35;;
57105;SDS011;62662;56.788;23.942;2022-11-20T08:18:17;15.13;;;10.38;;
57105;SDS011;62662;56.788;23.942;2022-11-20T08:21:03;16.63;;;10.05;;
57105;SDS011;62662;56.788;23.942;2022-11-20T08:23:30;20.90;;;11.50;;
57105;SDS011;62662;56.788;23.942;2022-11-20T08:25:57;22.85;;;10.20;;
57105;SDS011;62662;56.788;23.942;2022-11-20T08:28:25;21.13;;;11.95;;
57105;SDS011;62662;56.788;23.942;2022-11-20T08:30:57;16.67;;;11.52;;
57105;SDS011;62662;56.788;23.942;2022-11-20T08:33:27;21.70;;;12.05;;
57105;SDS011;62662;56.788;23.942;2022-11-20T08:35:59;18.35;;;11.43;;
57105;SDS011;62662;56.788;23.942;2022-11-20T08:38:28;18.55;;;10.27;;
57105;SDS011;62662;56.788;23.942;2022-11-20T08:40:57;18.65;;;10.32;;
57105;SDS011;62662;56.788;23.942;2022-11-20T08:43:43;16.13;;;10.85;;
57105;SDS011;62662;56.788;23.942;2022-11-20T08:46:10;17.20;;;10.80;;
57105;SDS011;62662;56.788;23.942;2022-11-20T08:48:37;15.20;;;11.00;;
57105;SDS011;62662;56.788;23.942;2022-11-20T08:51:04;16.73;;;10.73;;
57105;SDS011;62662;56.788;23.942;2022-11-20T08:53:32;16.90;;;11.05;;
57105;SDS011;62662;56.788;23.942;2022-11-20T08:55:59;16.50;;;12.32;;
57105;SDS011;62662;56.788;23.942;2022-11-20T08:58:26;18.67;;;12.80;;
57105;SDS011;62662;56.788;23.942;2022-11-20T09:00:56;19.77;;;12.60;;
57105;SDS011;62662;56.788;23.942;2022-11-20T09:03:24;18.90;;;13.85;;
57105;SDS011;62662;56.788;23.942;2022-11-20T09:06:02;17.15;;;11.90;;
57105;SDS011;62662;56.788;23.942;2022-11-20T09:08:31;17.80;;;12.43;;
57105;SDS011;62662;56.788;23.942;2022-11-20T09:10:58;18.17;;;12.80;;
57105;SDS011;62662;56.788;23.942;2022-11-20T09:13:26;18.20;;;11.40;;
57105;SDS011;62662;56.788;23.942;2022-11-20T09:15:55;15.63;;;11.13;;
57105;SDS011;62662;56.788;23.942;2022-11-20T09:18:23;19.02;;;12.35;;
57105;SDS011;62662;56.788;23.942;2022-11-20T09:20:51;16.38;;;12.00;;
57105;SDS011;62662;56.788;23.942;2022-11-20T09:23:22;20.25;;;13.40;;
57105;SDS011;62662;56.788;23.942;2022-11-20T09:25:50;20.30;;;13.57;;
57105;SDS011;62662;56.788;23.942;2022-11-20T09:28:17;16.88;;;12.07;;
57105;SDS011;62662;56.788;23.942;2022-11-20T09:30:45;18.92;;;12.23;;
57105;SDS011;62662;56.788;23.942;2022-11-20T09:33:12;19.08;;;13.65;;
57105;SDS011;62662;56.788;23.942;2022-11-20T09:35:39;18.65;;;13.45;;
57105;SDS011;62662;56.788;23.942;2022-11-20T09:38:07;16.88;;;12.60;;
57105;SDS011;62662;56.788;23.942;2022-11-20T09:40:38;18.98;;;12.25;;
57105;SDS011;62662;56.788;23.942;2022-11-20T09:43:23;18.20;;;12.82;;
57105;SDS011;62662;56.788;23.942;2022-11-20T09:49:19;16.48;;;12.80;;
57105;SDS011;62662;56.788;23.942;2022-11-20T09:54:33;18.67;;;11.98;;
57105;SDS011;62662;56.788;23.942;2022-11-20T09:57:05;19.65;;;13.52;;
57105;SDS011;62662;56.788;23.942;2022-11-20T09:59:42;18.05;;;12.40;;
57105;SDS011;62662;56.788;23.942;2022-11-20T10:05:05;16.50;;;12.55;;
57105;SDS011;62662;56.788;23.942;2022-11-20T10:18:48;19.70;;;12.75;;
57105;SDS011;62662;56.788;23.942;2022-11-20T10:30:12;19.90;;;13.25;;
57105;SDS011;62662;56.788;23.942;2022-11-20T10:32:43;21.48;;;14.75;;
57105;SDS011;62662;56.788;23.942;2022-11-20T10:35:22;19.13;;;13.57;;
57105;SDS011;62662;56.788;23.942;2022-11-20T10:38:14;20.77;;;13.45;;
57105;SDS011;62662;56.788;23.942;2022-11-20T10:40:59;15.68;;;10.15;;
57105;SDS011;62662;56.788;23.942;2022-11-20T10:43:47;18.50;;;12.10;;
57105;SDS011;62662;56.788;23.942;2022-11-20T10:46:19;19.08;;;12.35;;
57105;SDS011;62662;56.788;23.942;2022-11-20T10:48:51;15.27;;;11.10;;
57105;SDS011;62662;56.788;23.942;2022-11-20T10:54:16;18.25;;;13.48;;
57105;SDS011;62662;56.788;23.942;2022-11-20T10:57:05;24.23;;;14.65;;
57105;SDS011;62662;56.788;23.942;2022-11-20T11:02:33;19.33;;;13.20;;
57105;SDS011;62662;56.788;23.942;2022-11-20T11:05:09;19.92;;;12.65;;
57105;SDS011;62662;56.788;23.942;2022-11-20T11:07:59;16.70;;;12.45;;
57105;SDS011;62662;56.788;23.942;2022-11-20T11:13:04;20.35;;;12.48;;
57105;SDS011;62662;56.788;23.942;2022-11-20T11:15:38;17.48;;;12.15;;
57105;SDS011;62662;56.788;23.942;2022-11-20T11:18:10;20.40;;;14.43;;
57105;SDS011;62662;56.788;23.942;2022-11-20T11:20:38;20.05;;;13.02;;
57105;SDS011;62662;56.788;23.942;2022-11-20T11:23:10;20.10;;;13.38;;
57105;SDS011;62662;56.788;23.942;2022-11-20T11:25:59;22.27;;;14.48;;
57105;SDS011;62662;56.788;23.942;2022-11-20T11:28:27;22.15;;;14.73;;
57105;SDS011;62662;56.788;23.942;2022-11-20T11:30:55;24.55;;;14.05;;
57105;SDS011;62662;56.788;23.942;2022-11-20T11:33:23;21.42;;;13.90;;
57105;SDS011;62662;56.788;23.942;2022-11-20T11:35:56;24.20;;;15.00;;
57105;SDS011;62662;56.788;23.942;2022-11-20T11:38:28;21.85;;;13.38;;
57105;SDS011;62662;56.788;23.942;2022-11-20T11:40:59;25.55;;;15.00;;
57105;SDS011;62662;56.788;23.942;2022-11-20T11:43:28;20.67;;;13.43;;
57105;SDS011;62662;56.788;23.942;2022-11-20T11:46:25;25.65;;;15.25;;
57105;SDS011;62662;56.788;23.942;2022-11-20T11:49:08;22.23;;;14.10;;
57105;SDS011;62662;56.788;23.942;2022-11-20T11:54:36;26.30;;;14.70;;
57105;SDS011;62662;56.788;23.942;2022-11-20T12:05:13;26.00;;;14.80;;
57105;SDS011;62662;56.788;23.942;2022-11-20T12:07:57;27.50;;;16.95;;
57105;SDS011;62662;56.788;23.942;2022-11-20T12:16:09;27.17;;;14.85;;
57105;SDS011;62662;56.788;23.942;2022-11-20T12:18:41;23.98;;;13.57;;
57105;SDS011;62662;56.788;23.942;2022-11-20T12:21:17;22.42;;;12.85;;
57105;SDS011;62662;56.788;23.942;2022-11-20T12:26:53;21.00;;;12.60;;
57105;SDS011;62662;56.788;23.942;2022-11-20T12:44:10;24.10;;;14.73;;
57105;SDS011;62662;56.788;23.942;2022-11-20T12:49:52;27.60;;;14.73;;
57105;SDS011;62662;56.788;23.942;2022-11-20T12:52:34;29.33;;;14.73;;
57105;SDS011;62662;56.788;23.942;2022-11-20T12:58:03;23.35;;;12.80;;
57105;SDS011;62662;56.788;23.942;2022-11-20T13:00:35;28.27;;;15.32;;
57105;SDS011;62662;56.788;23.942;2022-11-20T13:03:27;33.92;;;15.55;;
57105;SDS011;62662;56.788;23.942;2022-11-20T13:06:19;27.27;;;16.85;;
57105;SDS011;62662;56.788;23.942;2022-11-20T13:08:49;26.67;;;15.73;;
57105;SDS011;62662;56.788;23.942;2022-11-20T13:19:25;26.98;;;15.80;;
57105;SDS011;62662;56.788;23.942;2022-11-20T13:22:00;24.40;;;14.48;;
57105;SDS011;62662;56.788;23.942;2022-11-20T13:24:35;23.45;;;13.88;;
57105;SDS011;62662;56.788;23.942;2022-11-20T13:29:35;27.80;;;14.98;;
57105;SDS011;62662;56.788;23.942;2022-11-20T13:34:58;26.55;;;14.93;;
57105;SDS011;62662;56.788;23.942;2022-11-20T13:37:31;25.02;;;14.13;;
57105;SDS011;62662;56.788;23.942;2022-11-20T13:42:44;23.95;;;15.02;;
57105;SDS011;62662;56.788;23.942;2022-11-20T13:45:25;25.75;;;15.02;;
57105;SDS011;62662;56.788;23.942;2022-11-20T13:47:54;20.10;;;14.13;;
57105;SDS011;62662;56.788;23.942;2022-11-20T13:50:44;20.60;;;13.93;;
57105;SDS011;62662;56.788;23.942;2022-11-20T13:58:47;25.52;;;14.65;;
57105;SDS011;62662;56.788;23.942;2022-11-20T14:01:40;21.88;;;13.13;;
57105;SDS011;62662;56.788;23.942;2022-11-20T14:04:15;28.83;;;15.80;;
57105;SDS011;62662;56.788;23.942;2022-11-20T14:06:47;25.92;;;16.00;;
57105;SDS011;62662;56.788;23.942;2022-11-20T14:09:26;23.38;;;15.13;;
57105;SDS011;62662;56.788;23.942;2022-11-20T14:11:57;25.45;;;15.88;;
57105;SDS011;62662;56.788;23.942;2022-11-20T14:14:32;27.00;;;15.95;;
57105;SDS011;62662;56.788;23.942;2022-11-20T14:17:32;28.85;;;16.63;;
57105;SDS011;62662;56.788;23.942;2022-11-20T14:20:06;24.75;;;14.95;;
57105;SDS011;62662;56.788;23.942;2022-11-20T14:22:49;22.33;;;14.40;;
57105;SDS011;62662;56.788;23.942;2022-11-20T14:25:21;28.13;;;16.73;;
57105;SDS011;62662;56.788;23.942;2022-11-20T14:27:58;24.92;;;14.35;;
57105;SDS011;62662;56.788;23.942;2022-11-20T14:30:36;25.65;;;15.48;;
57105;SDS011;62662;56.788;23.942;2022-11-20T14:33:15;21.55;;;13.48;;
57105;SDS011;62662;56.788;23.942;2022-11-20T14:35:44;23.35;;;14.63;;
57105;SDS011;62662;56.788;23.942;2022-11-20T14:38:19;26.02;;;17.02;;
57105;SDS011;62662;56.788;23.942;2022-11-20T14:40:54;26.70;;;14.38;;
57105;SDS011;62662;56.788;23.942;2022-11-20T14:43:36;18.75;;;12.50;;
57105;SDS011;62662;56.788;23.942;2022-11-20T14:46:08;24.95;;;14.77;;
57105;SDS011;62662;56.788;23.942;2022-11-20T14:48:39;27.75;;;16.02;;
57105;SDS011;62662;56.788;23.942;2022-11-20T14:51:34;22.23;;;13.80;;
57105;SDS011;62662;56.788;23.942;2022-11-20T14:54:16;18.08;;;12.45;;
57105;SDS011;62662;56.788;23.942;2022-11-20T14:56:59;20.80;;;14.07;;
57105;SDS011;62662;56.788;23.942;2022-11-20T14:59:38;26.92;;;13.82;;
57105;SDS011;62662;56.788;23.942;2022-11-20T15:02:10;17.33;;;11.20;;
57105;SDS011;62662;56.788;23.942;2022-11-20T15:04:48;19.75;;;12.10;;
57105;SDS011;62662;56.788;23.942;2022-11-20T15:07:31;22.50;;;15.00;;
57105;SDS011;62662;56.788;23.942;2022-11-20T15:10:11;25.87;;;14.97;;
57105;SDS011;62662;56.788;23.942;2022-11-20T15:12:49;29.30;;;17.10;;
57105;SDS011;62662;56.788;23.942;2022-11-20T15:15:29;25.02;;;14.50;;
57105;SDS011;62662;56.788;23.942;2022-11-20T15:18:11;23.00;;;13.77;;
57105;SDS011;62662;56.788;23.942;2022-11-20T15:20:45;23.77;;;14.20;;
57105;SDS011;62662;56.788;23.942;2022-11-20T15:23:15;21.02;;;12.93;;
57105;SDS011;62662;56.788;23.942;2022-11-20T15:25:48;21.00;;;12.98;;
57105;SDS011;62662;56.788;23.942;2022-11-20T15:28:21;22.45;;;11.32;;
57105;SDS011;62662;56.788;23.942;2022-11-20T15:31:04;21.30;;;13.02;;
57105;SDS011;62662;56.788;23.942;2022-11-20T15:33:33;18.73;;;13.38;;
57105;SDS011;62662;56.788;23.942;2022-11-20T15:36:04;20.38;;;12.27;;
57105;SDS011;62662;56.788;23.942;2022-11-20T15:38:33;22.00;;;13.27;;
57105;SDS011;62662;56.788;23.942;2022-11-20T15:41:01;25.08;;;14.02;;
57105;SDS011;62662;56.788;23.942;2022-11-20T15:43:29;23.35;;;12.88;;
57105;SDS011;62662;56.788;23.942;2022-11-20T15:46:16;18.95;;;12.25;;
57105;SDS011;62662;56.788;23.942;2022-11-20T15:48:56;21.85;;;13.32;;
57105;SDS011;62662;56.788;23.942;2022-11-20T15:51:27;17.10;;;11.15;;
57105;SDS011;62662;56.788;23.942;2022-11-20T15:53:55;15.02;;;9.52;;
57105;SDS011;62662;56.788;23.942;2022-11-20T15:56:23;24.85;;;13.65;;
57105;SDS011;62662;56.788;23.942;2022-11-20T15:58:52;21.48;;;13.10;;
57105;SDS011;62662;56.788;23.942;2022-11-20T16:01:23;30.48;;;15.75;;
57105;SDS011;62662;56.788;23.942;2022-11-20T16:03:50;24.73;;;14.05;;
57105;SDS011;62662;56.788;23.942;2022-11-20T16:06:21;25.35;;;15.68;;
57105;SDS011;62662;56.788;23.942;2022-11-20T16:08:54;22.75;;;14.60;;
57105;SDS011;62662;56.788;23.942;2022-11-20T16:11:25;29.87;;;15.90;;
57105;SDS011;62662;56.788;23.942;2022-11-20T16:13:58;26.48;;;14.95;;
57105;SDS011;62662;56.788;23.942;2022-11-20T16:16:44;22.13;;;13.95;;
57105;SDS011;62662;56.788;23.942;2022-11-20T16:19:13;24.58;;;14.32;;
57105;SDS011;62662;56.788;23.942;2022-11-20T16:21:42;24.83;;;14.52;;